Current Weather

Lavan Island

Lavan Island, Iran (OIBV)

Report from: Saturday, February 24, 2024 3:00 PM UTC
Current time: Sunday, February 25, 2024 2:12 AM UTC

Nearby weather – Weather history – Daily summaries
Weather forecast

Present weatherHaze
Temperature23.0°C (73.4°F)
Dew point20.0°C (68.0°F)
Winds 6 kts (3.1 m/s, 6.9 mph) West-Southwest (240°)
Visibility3.1 mi. (5 km)
Altimeter29.88 in.Hg (1012 mB)
Relative humidity83 %
Density altitude1,289 ft. (393 m)
Flight conditions Marginal Visual Meteorological Conditions
Raw dataOIBV 241500Z 24006KT 5000 HZ NSC 23/20 Q1012
An error has occurred. This application may no longer respond until reloaded. Reload 🗙